Airfield :
LOGIN :

Register | Disclaimer

   EN    FR    IT 

 










Legend :    VFR   Marginal VFR   IFR   Intensive IFR   Very Intensive IFR
Visi :
Ceiling :
>= 8 km
>= 3000ft
5 to 8 km
1000 to 3000 ft
1500m to 5 km
500 to 1000 ft
800 to 1500m
200 to 500 ft
< 800m
< 200 ft
Symbols :   Thunderstorms  Fog  Heavy snow  Heavy precipitations  Wind > 20 kt
SIGMETs :     Misc.  Thunderstorms  Icing  Turbulence  Mountain Waves  Volcanic Ashes







- Airport Elevation : 138 ft
- IATA code : BIO


LEBB - Bilbao

CURRENT METAR :
  • 161000Z 13008KT 080V170 CAVOK 15/04 Q1025 NOSIG

EXPIRED METARs :
  • 160930Z 14009KT 110V180 CAVOK 14/04 Q1026 NOSIG
  • 160900Z 11011KT 090V150 CAVOK 13/03 Q1026 NOSIG
  • 160830Z 13006KT 090V190 CAVOK 11/03 Q1026 NOSIG
  • 160800Z 10008KT 070V140 CAVOK 10/02 Q1026 NOSIG
  • 160730Z 13009KT 100V160 CAVOK 07/02 Q1026 NOSIG
  • 160700Z VRB02KT CAVOK 07/02 Q1026 NOSIG

TAF TAF LEBB
Valid from the 16 at 06:00 until the 17 at 06:00 UTC


160500Z 1606/1706 18009KT CAVOK TX19/1615Z TN06/1606Z
TEMPO 1612/1706 19015G25KT
No reported NOTAMs for that airfield.



MET'MAP, your aeronautical weather chart ! - Copyright ORBIFLY December 2007 - Disclaimer

ORBIFLY MET'MAP TEAM :

Programming & Development : Alexandra Zaïnal
Concept & Development : Baudouin d'Aumeries
Co-Development & Prog : Marc-Olivier Méhu
Technical & hardware support : Manuel Goepfert

Contact : metmap@orbifly.com




SOURCES & CREDITS :

   NOAA